Terminal Aerodrome Forecast
Issued by NWS

Home | Current Version | Previous Version | Text Only | Print | Product List | Glossary On
Versions: 1 2 3 4 5 6 7 8 9 10 11 12 13 14 15 16 17 18 19 20 21 22 23 24 25 26 27 28 29 30 31 32
000
FTUS41 KCLE 231700
TAFFDY
TAF
KFDY 231740Z 2318/2418 06007KT P6SM BKN025
     FM232000 06007KT P6SM BKN035
     FM240000 06004KT P6SM SCT040
     FM240500 06004KT 4SM BR SCT003
     FM241000 06004KT 1/2SM FG OVC003
     FM241400 06007KT 4SM BR BKN006
     FM241500 06007KT P6SM BKN015=

USA.gov is the U.S. government's official web portal to all federal, state and local government web resources and services.